sensor_id;sensor_type;location;lat;lon;timestamp;P1;durP1;ratioP1;P2;durP2;ratioP2
23252;SDS011;11795;47.054;15.408;2022-10-31T00:00:01;14.9;;;9.6;;
23252;SDS011;11795;47.054;15.408;2022-10-31T00:02:00;11.4;;;8.8;;
23252;SDS011;11795;47.054;15.408;2022-10-31T00:04:00;11.4;;;8.8;;
23252;SDS011;11795;47.054;15.408;2022-10-31T00:06:01;13.4;;;9.8;;
23252;SDS011;11795;47.054;15.408;2022-10-31T00:08:00;13.4;;;9.8;;
23252;SDS011;11795;47.054;15.408;2022-10-31T00:10:00;13.4;;;9.8;;
23252;SDS011;11795;47.054;15.408;2022-10-31T00:12:00;16.8;;;10.6;;
23252;SDS011;11795;47.054;15.408;2022-10-31T00:14:00;16.8;;;10.6;;
23252;SDS011;11795;47.054;15.408;2022-10-31T00:16:00;14.3;;;10.7;;
23252;SDS011;11795;47.054;15.408;2022-10-31T00:18:00;14.3;;;10.7;;
23252;SDS011;11795;47.054;15.408;2022-10-31T00:20:00;14.3;;;10.7;;
23252;SDS011;11795;47.054;15.408;2022-10-31T00:22:00;14.5;;;9.9;;
23252;SDS011;11795;47.054;15.408;2022-10-31T00:24:00;14.5;;;9.9;;
23252;SDS011;11795;47.054;15.408;2022-10-31T00:26:00;16.8;;;10.3;;
23252;SDS011;11795;47.054;15.408;2022-10-31T00:28:00;16.8;;;10.3;;
23252;SDS011;11795;47.054;15.408;2022-10-31T00:30:00;16.8;;;10.3;;
23252;SDS011;11795;47.054;15.408;2022-10-31T00:32:00;20.6;;;11.4;;
23252;SDS011;11795;47.054;15.408;2022-10-31T00:34:02;20.6;;;11.4;;
23252;SDS011;11795;47.054;15.408;2022-10-31T00:36:00;15.4;;;11.5;;
23252;SDS011;11795;47.054;15.408;2022-10-31T00:38:00;15.4;;;11.5;;
23252;SDS011;11795;47.054;15.408;2022-10-31T00:40:00;15.4;;;11.5;;
23252;SDS011;11795;47.054;15.408;2022-10-31T00:42:00;13.4;;;10.5;;
23252;SDS011;11795;47.054;15.408;2022-10-31T00:44:00;13.4;;;10.5;;
23252;SDS011;11795;47.054;15.408;2022-10-31T00:46:00;16.0;;;10.9;;
23252;SDS011;11795;47.054;15.408;2022-10-31T00:48:00;16.0;;;10.9;;
23252;SDS011;11795;47.054;15.408;2022-10-31T00:50:00;16.0;;;10.9;;
23252;SDS011;11795;47.054;15.408;2022-10-31T00:52:00;16.7;;;11.3;;
23252;SDS011;11795;47.054;15.408;2022-10-31T00:54:00;16.7;;;11.3;;
23252;SDS011;11795;47.054;15.408;2022-10-31T00:56:00;13.3;;;10.5;;
23252;SDS011;11795;47.054;15.408;2022-10-31T00:58:00;13.3;;;10.5;;
23252;SDS011;11795;47.054;15.408;2022-10-31T01:00:00;13.3;;;10.5;;
23252;SDS011;11795;47.054;15.408;2022-10-31T01:02:00;14.3;;;11.1;;
23252;SDS011;11795;47.054;15.408;2022-10-31T01:04:00;14.3;;;11.1;;
23252;SDS011;11795;47.054;15.408;2022-10-31T01:06:00;14.0;;;10.5;;
23252;SDS011;11795;47.054;15.408;2022-10-31T01:08:00;14.0;;;10.5;;
23252;SDS011;11795;47.054;15.408;2022-10-31T01:10:00;14.0;;;10.5;;
23252;SDS011;11795;47.054;15.408;2022-10-31T01:12:00;16.1;;;10.8;;
23252;SDS011;11795;47.054;15.408;2022-10-31T01:14:00;16.1;;;10.8;;
23252;SDS011;11795;47.054;15.408;2022-10-31T01:16:00;15.9;;;11.0;;
23252;SDS011;11795;47.054;15.408;2022-10-31T01:18:00;15.9;;;11.0;;
23252;SDS011;11795;47.054;15.408;2022-10-31T01:20:00;15.9;;;11.0;;
23252;SDS011;11795;47.054;15.408;2022-10-31T01:22:00;17.1;;;11.3;;
23252;SDS011;11795;47.054;15.408;2022-10-31T01:24:02;17.1;;;11.3;;
23252;SDS011;11795;47.054;15.408;2022-10-31T01:26:01;14.8;;;11.3;;
23252;SDS011;11795;47.054;15.408;2022-10-31T01:28:00;14.8;;;11.3;;
23252;SDS011;11795;47.054;15.408;2022-10-31T01:30:00;14.8;;;11.3;;
23252;SDS011;11795;47.054;15.408;2022-10-31T01:32:00;15.4;;;11.3;;
23252;SDS011;11795;47.054;15.408;2022-10-31T01:34:00;15.4;;;11.3;;
23252;SDS011;11795;47.054;15.408;2022-10-31T01:36:00;14.1;;;10.9;;
23252;SDS011;11795;47.054;15.408;2022-10-31T01:38:00;14.1;;;10.9;;
23252;SDS011;11795;47.054;15.408;2022-10-31T01:40:00;14.1;;;10.9;;
23252;SDS011;11795;47.054;15.408;2022-10-31T01:42:00;16.7;;;11.8;;
23252;SDS011;11795;47.054;15.408;2022-10-31T01:44:01;16.7;;;11.8;;
23252;SDS011;11795;47.054;15.408;2022-10-31T01:46:00;16.2;;;11.2;;
23252;SDS011;11795;47.054;15.408;2022-10-31T01:48:00;16.2;;;11.2;;
23252;SDS011;11795;47.054;15.408;2022-10-31T01:50:01;16.2;;;11.2;;
23252;SDS011;11795;47.054;15.408;2022-10-31T01:52:01;12.8;;;11.3;;
23252;SDS011;11795;47.054;15.408;2022-10-31T01:54:01;12.8;;;11.3;;
23252;SDS011;11795;47.054;15.408;2022-10-31T01:56:00;16.9;;;12.4;;
23252;SDS011;11795;47.054;15.408;2022-10-31T01:58:02;16.9;;;12.4;;
23252;SDS011;11795;47.054;15.408;2022-10-31T02:00:01;16.9;;;12.4;;
23252;SDS011;11795;47.054;15.408;2022-10-31T02:02:00;20.0;;;13.9;;
23252;SDS011;11795;47.054;15.408;2022-10-31T02:04:00;20.0;;;13.9;;
23252;SDS011;11795;47.054;15.408;2022-10-31T02:06:00;17.3;;;13.4;;
23252;SDS011;11795;47.054;15.408;2022-10-31T02:08:01;17.3;;;13.4;;
23252;SDS011;11795;47.054;15.408;2022-10-31T02:10:00;17.3;;;13.4;;
23252;SDS011;11795;47.054;15.408;2022-10-31T02:12:00;16.8;;;13.7;;
23252;SDS011;11795;47.054;15.408;2022-10-31T02:14:00;16.8;;;13.7;;
23252;SDS011;11795;47.054;15.408;2022-10-31T02:16:00;19.2;;;14.3;;
23252;SDS011;11795;47.054;15.408;2022-10-31T02:18:00;19.2;;;14.3;;
23252;SDS011;11795;47.054;15.408;2022-10-31T02:20:02;19.2;;;14.3;;
23252;SDS011;11795;47.054;15.408;2022-10-31T02:22:02;18.1;;;13.3;;
23252;SDS011;11795;47.054;15.408;2022-10-31T02:24:07;18.1;;;13.3;;
23252;SDS011;11795;47.054;15.408;2022-10-31T02:26:06;19.6;;;14.7;;
23252;SDS011;11795;47.054;15.408;2022-10-31T02:28:03;19.6;;;14.7;;
23252;SDS011;11795;47.054;15.408;2022-10-31T02:30:03;19.6;;;14.7;;
23252;SDS011;11795;47.054;15.408;2022-10-31T02:32:00;15.2;;;12.7;;
23252;SDS011;11795;47.054;15.408;2022-10-31T02:34:01;15.2;;;12.7;;
23252;SDS011;11795;47.054;15.408;2022-10-31T02:36:02;15.6;;;13.2;;
23252;SDS011;11795;47.054;15.408;2022-10-31T02:38:02;15.6;;;13.2;;
23252;SDS011;11795;47.054;15.408;2022-10-31T02:40:02;15.6;;;13.2;;
23252;SDS011;11795;47.054;15.408;2022-10-31T02:42:01;15.3;;;13.7;;
23252;SDS011;11795;47.054;15.408;2022-10-31T02:44:02;15.3;;;13.7;;
23252;SDS011;11795;47.054;15.408;2022-10-31T02:46:01;19.3;;;14.3;;
23252;SDS011;11795;47.054;15.408;2022-10-31T02:48:01;19.3;;;14.3;;
23252;SDS011;11795;47.054;15.408;2022-10-31T02:50:00;19.3;;;14.3;;
23252;SDS011;11795;47.054;15.408;2022-10-31T02:52:00;16.4;;;13.9;;
23252;SDS011;11795;47.054;15.408;2022-10-31T02:54:00;16.4;;;13.9;;
23252;SDS011;11795;47.054;15.408;2022-10-31T02:56:01;18.9;;;13.3;;
23252;SDS011;11795;47.054;15.408;2022-10-31T02:58:00;18.9;;;13.3;;
23252;SDS011;11795;47.054;15.408;2022-10-31T03:00:01;18.9;;;13.3;;
23252;SDS011;11795;47.054;15.408;2022-10-31T03:02:10;22.5;;;14.4;;
23252;SDS011;11795;47.054;15.408;2022-10-31T03:04:04;22.5;;;14.4;;
23252;SDS011;11795;47.054;15.408;2022-10-31T03:06:00;16.9;;;13.7;;
23252;SDS011;11795;47.054;15.408;2022-10-31T03:08:01;16.9;;;13.7;;
23252;SDS011;11795;47.054;15.408;2022-10-31T03:10:02;16.9;;;13.7;;
23252;SDS011;11795;47.054;15.408;2022-10-31T03:12:02;16.6;;;13.2;;
23252;SDS011;11795;47.054;15.408;2022-10-31T03:14:02;16.6;;;13.2;;
23252;SDS011;11795;47.054;15.408;2022-10-31T03:16:02;20.3;;;13.4;;
23252;SDS011;11795;47.054;15.408;2022-10-31T03:18:00;20.3;;;13.4;;
23252;SDS011;11795;47.054;15.408;2022-10-31T03:20:00;20.3;;;13.4;;
23252;SDS011;11795;47.054;15.408;2022-10-31T03:22:00;14.1;;;11.9;;
23252;SDS011;11795;47.054;15.408;2022-10-31T03:24:00;14.1;;;11.9;;
23252;SDS011;11795;47.054;15.408;2022-10-31T03:26:00;12.2;;;9.6;;
23252;SDS011;11795;47.054;15.408;2022-10-31T03:28:00;12.2;;;9.6;;
23252;SDS011;11795;47.054;15.408;2022-10-31T03:30:01;12.2;;;9.6;;
23252;SDS011;11795;47.054;15.408;2022-10-31T03:32:01;9.6;;;8.6;;
23252;SDS011;11795;47.054;15.408;2022-10-31T03:34:00;9.6;;;8.6;;
23252;SDS011;11795;47.054;15.408;2022-10-31T03:36:00;10.8;;;9.3;;
23252;SDS011;11795;47.054;15.408;2022-10-31T03:38:00;10.8;;;9.3;;
23252;SDS011;11795;47.054;15.408;2022-10-31T03:40:00;10.8;;;9.3;;
23252;SDS011;11795;47.054;15.408;2022-10-31T03:42:02;12.3;;;9.9;;
23252;SDS011;11795;47.054;15.408;2022-10-31T03:44:01;12.3;;;9.9;;
23252;SDS011;11795;47.054;15.408;2022-10-31T03:46:00;16.3;;;10.1;;
23252;SDS011;11795;47.054;15.408;2022-10-31T03:48:00;16.3;;;10.1;;
23252;SDS011;11795;47.054;15.408;2022-10-31T03:50:00;16.3;;;10.1;;
23252;SDS011;11795;47.054;15.408;2022-10-31T03:52:01;10.5;;;8.8;;
23252;SDS011;11795;47.054;15.408;2022-10-31T03:54:01;10.5;;;8.8;;
23252;SDS011;11795;47.054;15.408;2022-10-31T03:56:01;10.2;;;9.1;;
23252;SDS011;11795;47.054;15.408;2022-10-31T03:58:02;10.2;;;9.1;;
23252;SDS011;11795;47.054;15.408;2022-10-31T04:00:03;10.2;;;9.1;;
23252;SDS011;11795;47.054;15.408;2022-10-31T04:02:00;9.0;;;8.1;;
23252;SDS011;11795;47.054;15.408;2022-10-31T04:04:00;9.0;;;8.1;;
23252;SDS011;11795;47.054;15.408;2022-10-31T04:06:01;10.5;;;8.7;;
23252;SDS011;11795;47.054;15.408;2022-10-31T04:08:00;10.5;;;8.7;;
23252;SDS011;11795;47.054;15.408;2022-10-31T04:10:00;10.5;;;8.7;;
23252;SDS011;11795;47.054;15.408;2022-10-31T04:12:00;9.7;;;8.2;;
23252;SDS011;11795;47.054;15.408;2022-10-31T04:14:00;9.7;;;8.2;;
23252;SDS011;11795;47.054;15.408;2022-10-31T04:16:00;9.7;;;8.2;;
23252;SDS011;11795;47.054;15.408;2022-10-31T04:18:00;8.8;;;7.9;;
23252;SDS011;11795;47.054;15.408;2022-10-31T04:20:00;8.8;;;7.9;;
23252;SDS011;11795;47.054;15.408;2022-10-31T04:22:00;9.4;;;8.4;;
23252;SDS011;11795;47.054;15.408;2022-10-31T04:24:00;9.4;;;8.4;;
23252;SDS011;11795;47.054;15.408;2022-10-31T04:26:00;9.4;;;8.4;;
23252;SDS011;11795;47.054;15.408;2022-10-31T04:28:00;8.7;;;7.8;;
23252;SDS011;11795;47.054;15.408;2022-10-31T04:30:00;8.7;;;7.8;;
23252;SDS011;11795;47.054;15.408;2022-10-31T04:32:00;8.5;;;7.5;;
23252;SDS011;11795;47.054;15.408;2022-10-31T04:34:00;8.5;;;7.5;;
23252;SDS011;11795;47.054;15.408;2022-10-31T04:36:00;8.5;;;7.5;;
23252;SDS011;11795;47.054;15.408;2022-10-31T04:38:00;8.6;;;7.5;;
23252;SDS011;11795;47.054;15.408;2022-10-31T04:40:00;8.6;;;7.5;;
23252;SDS011;11795;47.054;15.408;2022-10-31T04:42:00;10.3;;;7.8;;
23252;SDS011;11795;47.054;15.408;2022-10-31T04:44:00;10.3;;;7.8;;
23252;SDS011;11795;47.054;15.408;2022-10-31T04:46:00;10.3;;;7.8;;
23252;SDS011;11795;47.054;15.408;2022-10-31T04:48:00;9.7;;;8.0;;
23252;SDS011;11795;47.054;15.408;2022-10-31T04:50:00;9.7;;;8.0;;
23252;SDS011;11795;47.054;15.408;2022-10-31T04:52:00;8.3;;;7.5;;
23252;SDS011;11795;47.054;15.408;2022-10-31T04:54:00;8.3;;;7.5;;
23252;SDS011;11795;47.054;15.408;2022-10-31T04:56:00;8.3;;;7.5;;
23252;SDS011;11795;47.054;15.408;2022-10-31T04:58:00;11.9;;;7.9;;
23252;SDS011;11795;47.054;15.408;2022-10-31T05:00:00;11.9;;;7.9;;
23252;SDS011;11795;47.054;15.408;2022-10-31T05:02:00;8.3;;;7.5;;
23252;SDS011;11795;47.054;15.408;2022-10-31T05:04:00;8.3;;;7.5;;
23252;SDS011;11795;47.054;15.408;2022-10-31T05:06:00;8.3;;;7.5;;
23252;SDS011;11795;47.054;15.408;2022-10-31T05:08:00;7.8;;;7.0;;
23252;SDS011;11795;47.054;15.408;2022-10-31T05:10:00;7.8;;;7.0;;
23252;SDS011;11795;47.054;15.408;2022-10-31T05:12:00;7.3;;;6.6;;
23252;SDS011;11795;47.054;15.408;2022-10-31T05:14:00;7.3;;;6.6;;
23252;SDS011;11795;47.054;15.408;2022-10-31T05:16:00;7.3;;;6.6;;
23252;SDS011;11795;47.054;15.408;2022-10-31T05:18:00;7.5;;;6.8;;
23252;SDS011;11795;47.054;15.408;2022-10-31T05:20:00;7.5;;;6.8;;
23252;SDS011;11795;47.054;15.408;2022-10-31T05:22:00;7.4;;;6.7;;
23252;SDS011;11795;47.054;15.408;2022-10-31T05:24:00;7.4;;;6.7;;
23252;SDS011;11795;47.054;15.408;2022-10-31T05:26:00;7.4;;;6.7;;
23252;SDS011;11795;47.054;15.408;2022-10-31T05:28:00;8.1;;;7.3;;
23252;SDS011;11795;47.054;15.408;2022-10-31T05:30:00;8.1;;;7.3;;
23252;SDS011;11795;47.054;15.408;2022-10-31T05:32:00;7.8;;;7.1;;
23252;SDS011;11795;47.054;15.408;2022-10-31T05:34:00;7.8;;;7.1;;
23252;SDS011;11795;47.054;15.408;2022-10-31T05:36:00;7.8;;;7.1;;
23252;SDS011;11795;47.054;15.408;2022-10-31T05:38:00;10.1;;;7.4;;
23252;SDS011;11795;47.054;15.408;2022-10-31T05:40:00;10.1;;;7.4;;
23252;SDS011;11795;47.054;15.408;2022-10-31T05:42:00;7.8;;;7.0;;
23252;SDS011;11795;47.054;15.408;2022-10-31T05:44:00;7.8;;;7.0;;
23252;SDS011;11795;47.054;15.408;2022-10-31T05:46:00;7.8;;;7.0;;
23252;SDS011;11795;47.054;15.408;2022-10-31T05:48:00;8.0;;;7.2;;
23252;SDS011;11795;47.054;15.408;2022-10-31T05:50:00;8.0;;;7.2;;
23252;SDS011;11795;47.054;15.408;2022-10-31T05:52:00;8.1;;;7.3;;
23252;SDS011;11795;47.054;15.408;2022-10-31T05:54:00;8.1;;;7.3;;
23252;SDS011;11795;47.054;15.408;2022-10-31T05:56:00;8.1;;;7.3;;
23252;SDS011;11795;47.054;15.408;2022-10-31T05:58:00;8.2;;;7.3;;
23252;SDS011;11795;47.054;15.408;2022-10-31T06:00:00;8.2;;;7.3;;
23252;SDS011;11795;47.054;15.408;2022-10-31T06:02:00;8.8;;;7.9;;
23252;SDS011;11795;47.054;15.408;2022-10-31T06:04:00;8.8;;;7.9;;
23252;SDS011;11795;47.054;15.408;2022-10-31T06:06:00;8.8;;;7.9;;
23252;SDS011;11795;47.054;15.408;2022-10-31T06:08:00;10.1;;;9.1;;
23252;SDS011;11795;47.054;15.408;2022-10-31T06:10:00;10.1;;;9.1;;
23252;SDS011;11795;47.054;15.408;2022-10-31T06:12:00;10.5;;;9.4;;
23252;SDS011;11795;47.054;15.408;2022-10-31T06:14:00;10.5;;;9.4;;
23252;SDS011;11795;47.054;15.408;2022-10-31T06:16:00;10.5;;;9.4;;
23252;SDS011;11795;47.054;15.408;2022-10-31T06:18:00;12.2;;;10.9;;
23252;SDS011;11795;47.054;15.408;2022-10-31T06:20:00;12.2;;;10.9;;
23252;SDS011;11795;47.054;15.408;2022-10-31T06:22:00;11.0;;;9.9;;
23252;SDS011;11795;47.054;15.408;2022-10-31T06:24:00;11.0;;;9.9;;
23252;SDS011;11795;47.054;15.408;2022-10-31T06:26:00;11.0;;;9.9;;
23252;SDS011;11795;47.054;15.408;2022-10-31T06:28:00;11.2;;;10.1;;
23252;SDS011;11795;47.054;15.408;2022-10-31T06:30:00;11.2;;;10.1;;
23252;SDS011;11795;47.054;15.408;2022-10-31T06:32:00;11.4;;;10.1;;
23252;SDS011;11795;47.054;15.408;2022-10-31T06:34:00;11.4;;;10.1;;
23252;SDS011;11795;47.054;15.408;2022-10-31T06:36:00;11.4;;;10.1;;
23252;SDS011;11795;47.054;15.408;2022-10-31T06:38:00;10.2;;;9.1;;
23252;SDS011;11795;47.054;15.408;2022-10-31T06:40:00;10.2;;;9.1;;
23252;SDS011;11795;47.054;15.408;2022-10-31T06:42:00;9.8;;;8.9;;
23252;SDS011;11795;47.054;15.408;2022-10-31T06:44:00;9.8;;;8.9;;
23252;SDS011;11795;47.054;15.408;2022-10-31T06:46:01;9.8;;;8.9;;
23252;SDS011;11795;47.054;15.408;2022-10-31T06:48:00;10.3;;;9.4;;
23252;SDS011;11795;47.054;15.408;2022-10-31T06:50:00;10.3;;;9.4;;
23252;SDS011;11795;47.054;15.408;2022-10-31T06:52:00;9.0;;;8.2;;
23252;SDS011;11795;47.054;15.408;2022-10-31T06:54:00;9.0;;;8.2;;
23252;SDS011;11795;47.054;15.408;2022-10-31T06:56:00;9.0;;;8.2;;
23252;SDS011;11795;47.054;15.408;2022-10-31T06:58:00;11.6;;;10.3;;
23252;SDS011;11795;47.054;15.408;2022-10-31T07:00:00;11.6;;;10.3;;
23252;SDS011;11795;47.054;15.408;2022-10-31T07:02:00;10.6;;;9.6;;
23252;SDS011;11795;47.054;15.408;2022-10-31T07:04:00;10.6;;;9.6;;
23252;SDS011;11795;47.054;15.408;2022-10-31T07:06:00;10.6;;;9.6;;
23252;SDS011;11795;47.054;15.408;2022-10-31T07:08:01;10.2;;;9.1;;
23252;SDS011;11795;47.054;15.408;2022-10-31T07:10:00;10.2;;;9.1;;
23252;SDS011;11795;47.054;15.408;2022-10-31T07:12:00;8.4;;;7.5;;
23252;SDS011;11795;47.054;15.408;2022-10-31T07:14:00;8.4;;;7.5;;
23252;SDS011;11795;47.054;15.408;2022-10-31T07:16:01;8.4;;;7.5;;
23252;SDS011;11795;47.054;15.408;2022-10-31T07:18:00;9.3;;;8.4;;
23252;SDS011;11795;47.054;15.408;2022-10-31T07:20:00;9.3;;;8.4;;
23252;SDS011;11795;47.054;15.408;2022-10-31T07:22:00;10.3;;;7.7;;
23252;SDS011;11795;47.054;15.408;2022-10-31T07:24:00;10.3;;;7.7;;
23252;SDS011;11795;47.054;15.408;2022-10-31T07:26:00;10.3;;;7.7;;
23252;SDS011;11795;47.054;15.408;2022-10-31T07:28:00;8.6;;;7.4;;
23252;SDS011;11795;47.054;15.408;2022-10-31T07:30:00;8.6;;;7.4;;
23252;SDS011;11795;47.054;15.408;2022-10-31T07:32:00;9.0;;;6.6;;
23252;SDS011;11795;47.054;15.408;2022-10-31T07:34:00;9.0;;;6.6;;
23252;SDS011;11795;47.054;15.408;2022-10-31T07:36:00;9.0;;;6.6;;
23252;SDS011;11795;47.054;15.408;2022-10-31T07:38:06;9.8;;;6.9;;
23252;SDS011;11795;47.054;15.408;2022-10-31T07:40:00;9.8;;;6.9;;
23252;SDS011;11795;47.054;15.408;2022-10-31T07:42:00;9.9;;;6.9;;
23252;SDS011;11795;47.054;15.408;2022-10-31T07:44:00;9.9;;;6.9;;
23252;SDS011;11795;47.054;15.408;2022-10-31T07:46:00;9.9;;;6.9;;
23252;SDS011;11795;47.054;15.408;2022-10-31T07:48:00;10.7;;;6.4;;
23252;SDS011;11795;47.054;15.408;2022-10-31T07:50:00;10.7;;;6.4;;
23252;SDS011;11795;47.054;15.408;2022-10-31T07:52:00;9.1;;;6.4;;
23252;SDS011;11795;47.054;15.408;2022-10-31T07:54:01;9.1;;;6.4;;
23252;SDS011;11795;47.054;15.408;2022-10-31T07:56:00;9.1;;;6.4;;
23252;SDS011;11795;47.054;15.408;2022-10-31T07:58:01;8.9;;;6.1;;
23252;SDS011;11795;47.054;15.408;2022-10-31T08:00:00;8.9;;;6.1;;
23252;SDS011;11795;47.054;15.408;2022-10-31T08:02:00;7.6;;;5.4;;
23252;SDS011;11795;47.054;15.408;2022-10-31T08:04:00;7.6;;;5.4;;
23252;SDS011;11795;47.054;15.408;2022-10-31T08:06:00;7.6;;;5.4;;
23252;SDS011;11795;47.054;15.408;2022-10-31T08:08:00;8.5;;;5.3;;
23252;SDS011;11795;47.054;15.408;2022-10-31T08:10:00;8.5;;;5.3;;
23252;SDS011;11795;47.054;15.408;2022-10-31T08:12:01;7.5;;;5.2;;
23252;SDS011;11795;47.054;15.408;2022-10-31T08:14:00;7.5;;;5.2;;
23252;SDS011;11795;47.054;15.408;2022-10-31T08:16:04;7.5;;;5.2;;
23252;SDS011;11795;47.054;15.408;2022-10-31T08:18:00;9.7;;;5.6;;
23252;SDS011;11795;47.054;15.408;2022-10-31T08:20:00;9.7;;;5.6;;
23252;SDS011;11795;47.054;15.408;2022-10-31T08:22:00;9.7;;;6.0;;
23252;SDS011;11795;47.054;15.408;2022-10-31T08:24:00;9.7;;;6.0;;
23252;SDS011;11795;47.054;15.408;2022-10-31T08:26:00;9.7;;;6.0;;
23252;SDS011;11795;47.054;15.408;2022-10-31T08:28:00;8.6;;;6.2;;
23252;SDS011;11795;47.054;15.408;2022-10-31T08:30:00;8.6;;;6.2;;
23252;SDS011;11795;47.054;15.408;2022-10-31T08:32:00;9.5;;;6.5;;
23252;SDS011;11795;47.054;15.408;2022-10-31T08:34:00;9.5;;;6.5;;
23252;SDS011;11795;47.054;15.408;2022-10-31T08:36:00;9.5;;;6.5;;
23252;SDS011;11795;47.054;15.408;2022-10-31T08:38:00;9.9;;;5.9;;
23252;SDS011;11795;47.054;15.408;2022-10-31T08:40:00;9.9;;;5.9;;
23252;SDS011;11795;47.054;15.408;2022-10-31T08:42:00;9.2;;;5.6;;
23252;SDS011;11795;47.054;15.408;2022-10-31T08:44:00;9.2;;;5.6;;
23252;SDS011;11795;47.054;15.408;2022-10-31T08:46:00;9.2;;;5.6;;
23252;SDS011;11795;47.054;15.408;2022-10-31T08:48:00;9.9;;;5.8;;
23252;SDS011;11795;47.054;15.408;2022-10-31T08:50:00;9.9;;;5.8;;
23252;SDS011;11795;47.054;15.408;2022-10-31T08:52:00;11.2;;;5.7;;
23252;SDS011;11795;47.054;15.408;2022-10-31T08:54:00;11.2;;;5.7;;
23252;SDS011;11795;47.054;15.408;2022-10-31T08:56:00;11.2;;;5.7;;
23252;SDS011;11795;47.054;15.408;2022-10-31T08:58:00;11.6;;;5.5;;
23252;SDS011;11795;47.054;15.408;2022-10-31T09:00:00;11.6;;;5.5;;
23252;SDS011;11795;47.054;15.408;2022-10-31T09:02:00;10.7;;;5.5;;
23252;SDS011;11795;47.054;15.408;2022-10-31T09:04:00;10.7;;;5.5;;
23252;SDS011;11795;47.054;15.408;2022-10-31T09:06:01;10.7;;;5.5;;
23252;SDS011;11795;47.054;15.408;2022-10-31T09:08:00;9.7;;;5.2;;
23252;SDS011;11795;47.054;15.408;2022-10-31T09:10:00;9.7;;;5.2;;
23252;SDS011;11795;47.054;15.408;2022-10-31T09:12:00;8.6;;;4.5;;
23252;SDS011;11795;47.054;15.408;2022-10-31T09:14:00;8.6;;;4.5;;
23252;SDS011;11795;47.054;15.408;2022-10-31T09:16:00;8.6;;;4.5;;
23252;SDS011;11795;47.054;15.408;2022-10-31T09:18:00;8.1;;;4.7;;
23252;SDS011;11795;47.054;15.408;2022-10-31T09:20:00;8.1;;;4.7;;
23252;SDS011;11795;47.054;15.408;2022-10-31T09:22:00;7.4;;;4.0;;
23252;SDS011;11795;47.054;15.408;2022-10-31T09:24:00;7.4;;;4.0;;
23252;SDS011;11795;47.054;15.408;2022-10-31T09:26:00;7.4;;;4.0;;
23252;SDS011;11795;47.054;15.408;2022-10-31T09:28:00;9.5;;;4.9;;
23252;SDS011;11795;47.054;15.408;2022-10-31T09:30:00;9.5;;;4.9;;
23252;SDS011;11795;47.054;15.408;2022-10-31T09:32:00;10.4;;;4.7;;
23252;SDS011;11795;47.054;15.408;2022-10-31T09:34:00;10.4;;;4.7;;
23252;SDS011;11795;47.054;15.408;2022-10-31T09:36:00;10.4;;;4.7;;
23252;SDS011;11795;47.054;15.408;2022-10-31T09:38:01;10.8;;;4.7;;
23252;SDS011;11795;47.054;15.408;2022-10-31T09:40:00;10.8;;;4.7;;
23252;SDS011;11795;47.054;15.408;2022-10-31T09:42:02;11.7;;;5.1;;
23252;SDS011;11795;47.054;15.408;2022-10-31T09:44:02;11.7;;;5.1;;
23252;SDS011;11795;47.054;15.408;2022-10-31T09:46:01;11.7;;;5.1;;
23252;SDS011;11795;47.054;15.408;2022-10-31T09:48:03;10.1;;;5.0;;
23252;SDS011;11795;47.054;15.408;2022-10-31T09:50:09;10.1;;;5.0;;
23252;SDS011;11795;47.054;15.408;2022-10-31T09:52:01;9.8;;;5.2;;
23252;SDS011;11795;47.054;15.408;2022-10-31T09:54:01;9.8;;;5.2;;
23252;SDS011;11795;47.054;15.408;2022-10-31T09:56:00;9.8;;;5.2;;
23252;SDS011;11795;47.054;15.408;2022-10-31T09:58:00;10.9;;;5.2;;
23252;SDS011;11795;47.054;15.408;2022-10-31T10:00:00;10.9;;;5.2;;
23252;SDS011;11795;47.054;15.408;2022-10-31T10:02:01;9.5;;;5.1;;
23252;SDS011;11795;47.054;15.408;2022-10-31T10:04:01;9.5;;;5.1;;
23252;SDS011;11795;47.054;15.408;2022-10-31T10:06:02;9.5;;;5.1;;
23252;SDS011;11795;47.054;15.408;2022-10-31T10:08:01;9.0;;;4.7;;
23252;SDS011;11795;47.054;15.408;2022-10-31T10:10:00;9.0;;;4.7;;
23252;SDS011;11795;47.054;15.408;2022-10-31T10:12:03;9.0;;;4.7;;
23252;SDS011;11795;47.054;15.408;2022-10-31T10:14:04;10.6;;;5.0;;
23252;SDS011;11795;47.054;15.408;2022-10-31T10:16:03;10.6;;;5.0;;
23252;SDS011;11795;47.054;15.408;2022-10-31T10:18:03;7.8;;;4.6;;
23252;SDS011;11795;47.054;15.408;2022-10-31T10:20:05;7.8;;;4.6;;
23252;SDS011;11795;47.054;15.408;2022-10-31T10:22:02;7.8;;;4.6;;
23252;SDS011;11795;47.054;15.408;2022-10-31T10:24:03;9.2;;;4.7;;
23252;SDS011;11795;47.054;15.408;2022-10-31T10:26:01;9.2;;;4.7;;
23252;SDS011;11795;47.054;15.408;2022-10-31T10:28:03;8.8;;;4.5;;
23252;SDS011;11795;47.054;15.408;2022-10-31T10:30:01;8.8;;;4.5;;
23252;SDS011;11795;47.054;15.408;2022-10-31T10:32:01;8.8;;;4.5;;
23252;SDS011;11795;47.054;15.408;2022-10-31T10:34:01;9.4;;;4.7;;
23252;SDS011;11795;47.054;15.408;2022-10-31T10:36:01;9.4;;;4.7;;
23252;SDS011;11795;47.054;15.408;2022-10-31T10:38:01;10.1;;;4.6;;
23252;SDS011;11795;47.054;15.408;2022-10-31T10:40:06;10.1;;;4.6;;
23252;SDS011;11795;47.054;15.408;2022-10-31T10:42:10;9.0;;;4.7;;
23252;SDS011;11795;47.054;15.408;2022-10-31T10:44:00;9.0;;;4.7;;
23252;SDS011;11795;47.054;15.408;2022-10-31T10:46:14;9.0;;;4.7;;
23252;SDS011;11795;47.054;15.408;2022-10-31T10:48:04;7.0;;;4.0;;
23252;SDS011;11795;47.054;15.408;2022-10-31T10:50:00;7.0;;;4.0;;
23252;SDS011;11795;47.054;15.408;2022-10-31T10:52:02;7.0;;;4.0;;
23252;SDS011;11795;47.054;15.408;2022-10-31T10:54:04;8.8;;;4.1;;
23252;SDS011;11795;47.054;15.408;2022-10-31T10:56:03;8.8;;;4.1;;
23252;SDS011;11795;47.054;15.408;2022-10-31T10:58:01;8.6;;;4.2;;
23252;SDS011;11795;47.054;15.408;2022-10-31T11:00:01;8.6;;;4.2;;
23252;SDS011;11795;47.054;15.408;2022-10-31T11:02:00;8.6;;;4.2;;
23252;SDS011;11795;47.054;15.408;2022-10-31T11:04:00;8.7;;;4.0;;
23252;SDS011;11795;47.054;15.408;2022-10-31T11:06:01;8.7;;;4.0;;
23252;SDS011;11795;47.054;15.408;2022-10-31T11:08:00;9.6;;;4.0;;
23252;SDS011;11795;47.054;15.408;2022-10-31T11:10:04;9.6;;;4.0;;
23252;SDS011;11795;47.054;15.408;2022-10-31T11:12:05;9.6;;;4.0;;
23252;SDS011;11795;47.054;15.408;2022-10-31T11:14:01;7.8;;;4.3;;
23252;SDS011;11795;47.054;15.408;2022-10-31T11:16:02;7.8;;;4.3;;
23252;SDS011;11795;47.054;15.408;2022-10-31T11:18:00;8.7;;;4.5;;
23252;SDS011;11795;47.054;15.408;2022-10-31T11:20:03;8.7;;;4.5;;
23252;SDS011;11795;47.054;15.408;2022-10-31T11:22:05;8.7;;;4.5;;
23252;SDS011;11795;47.054;15.408;2022-10-31T11:24:02;10.4;;;5.0;;
23252;SDS011;11795;47.054;15.408;2022-10-31T11:26:01;10.4;;;5.0;;
23252;SDS011;11795;47.054;15.408;2022-10-31T11:28:00;11.2;;;4.8;;
23252;SDS011;11795;47.054;15.408;2022-10-31T11:30:04;11.2;;;4.8;;
23252;SDS011;11795;47.054;15.408;2022-10-31T11:32:00;11.2;;;4.8;;
23252;SDS011;11795;47.054;15.408;2022-10-31T11:34:00;8.9;;;4.9;;
23252;SDS011;11795;47.054;15.408;2022-10-31T11:36:00;8.9;;;4.9;;
23252;SDS011;11795;47.054;15.408;2022-10-31T11:38:01;10.2;;;4.5;;
23252;SDS011;11795;47.054;15.408;2022-10-31T11:40:02;10.2;;;4.5;;
23252;SDS011;11795;47.054;15.408;2022-10-31T11:42:00;10.2;;;4.5;;
23252;SDS011;11795;47.054;15.408;2022-10-31T11:44:00;8.4;;;4.6;;
23252;SDS011;11795;47.054;15.408;2022-10-31T11:46:07;8.4;;;4.6;;
23252;SDS011;11795;47.054;15.408;2022-10-31T11:48:01;10.8;;;5.3;;
23252;SDS011;11795;47.054;15.408;2022-10-31T11:50:00;10.8;;;5.3;;
23252;SDS011;11795;47.054;15.408;2022-10-31T11:52:02;10.8;;;5.3;;
23252;SDS011;11795;47.054;15.408;2022-10-31T11:54:02;7.9;;;4.5;;
23252;SDS011;11795;47.054;15.408;2022-10-31T11:56:03;7.9;;;4.5;;
23252;SDS011;11795;47.054;15.408;2022-10-31T11:58:00;7.3;;;4.1;;
23252;SDS011;11795;47.054;15.408;2022-10-31T12:00:01;7.3;;;4.1;;
23252;SDS011;11795;47.054;15.408;2022-10-31T12:02:00;7.3;;;4.1;;
23252;SDS011;11795;47.054;15.408;2022-10-31T12:04:04;10.5;;;4.6;;